sensor_id;sensor_type;location;lat;lon;timestamp;P1;durP1;ratioP1;P2;durP2;ratioP2
76837;SDS011;65797;47.352;8.164;2022-12-24T00:00:25;1.43;;;1.10;;
76837;SDS011;65797;47.352;8.164;2022-12-24T00:02:51;2.70;;;0.83;;
76837;SDS011;65797;47.352;8.164;2022-12-24T00:05:16;2.20;;;1.07;;
76837;SDS011;65797;47.352;8.164;2022-12-24T00:07:42;1.10;;;1.10;;
76837;SDS011;65797;47.352;8.164;2022-12-24T00:10:08;0.80;;;0.80;;
76837;SDS011;65797;47.352;8.164;2022-12-24T00:12:35;1.13;;;1.03;;
76837;SDS011;65797;47.352;8.164;2022-12-24T00:15:00;0.80;;;0.80;;
76837;SDS011;65797;47.352;8.164;2022-12-24T00:17:27;1.00;;;1.00;;
76837;SDS011;65797;47.352;8.164;2022-12-24T00:19:53;1.60;;;1.07;;
76837;SDS011;65797;47.352;8.164;2022-12-24T00:22:18;2.20;;;1.13;;
76837;SDS011;65797;47.352;8.164;2022-12-24T00:24:44;1.60;;;1.10;;
76837;SDS011;65797;47.352;8.164;2022-12-24T00:27:10;2.13;;;0.90;;
76837;SDS011;65797;47.352;8.164;2022-12-24T00:29:35;1.20;;;1.10;;
76837;SDS011;65797;47.352;8.164;2022-12-24T00:32:01;1.00;;;1.00;;
76837;SDS011;65797;47.352;8.164;2022-12-24T00:34:27;1.90;;;1.00;;
76837;SDS011;65797;47.352;8.164;2022-12-24T00:36:52;1.00;;;1.00;;
76837;SDS011;65797;47.352;8.164;2022-12-24T00:39:18;0.80;;;0.80;;
76837;SDS011;65797;47.352;8.164;2022-12-24T00:41:43;4.20;;;1.00;;
76837;SDS011;65797;47.352;8.164;2022-12-24T00:44:09;2.53;;;1.20;;
76837;SDS011;65797;47.352;8.164;2022-12-24T00:46:37;2.63;;;1.23;;
76837;SDS011;65797;47.352;8.164;2022-12-24T00:49:05;2.70;;;1.10;;
76837;SDS011;65797;47.352;8.164;2022-12-24T00:51:32;1.00;;;1.00;;
76837;SDS011;65797;47.352;8.164;2022-12-24T00:53:58;1.00;;;0.90;;
76837;SDS011;65797;47.352;8.164;2022-12-24T00:56:24;4.80;;;1.43;;
76837;SDS011;65797;47.352;8.164;2022-12-24T00:58:50;1.03;;;0.90;;
76837;SDS011;65797;47.352;8.164;2022-12-24T01:01:16;1.63;;;1.10;;
76837;SDS011;65797;47.352;8.164;2022-12-24T01:03:42;1.20;;;1.10;;
76837;SDS011;65797;47.352;8.164;2022-12-24T01:06:09;1.23;;;1.03;;
76837;SDS011;65797;47.352;8.164;2022-12-24T01:08:37;0.90;;;0.90;;
76837;SDS011;65797;47.352;8.164;2022-12-24T01:11:03;1.27;;;0.90;;
76837;SDS011;65797;47.352;8.164;2022-12-24T01:13:30;0.80;;;0.80;;
76837;SDS011;65797;47.352;8.164;2022-12-24T01:15:56;0.97;;;0.80;;
76837;SDS011;65797;47.352;8.164;2022-12-24T01:18:21;2.90;;;0.97;;
76837;SDS011;65797;47.352;8.164;2022-12-24T01:20:57;0.97;;;0.97;;
76837;SDS011;65797;47.352;8.164;2022-12-24T01:23:28;0.80;;;0.80;;
76837;SDS011;65797;47.352;8.164;2022-12-24T01:25:58;3.30;;;1.00;;
76837;SDS011;65797;47.352;8.164;2022-12-24T01:28:25;1.43;;;0.80;;
76837;SDS011;65797;47.352;8.164;2022-12-24T01:30:51;1.17;;;0.80;;
76837;SDS011;65797;47.352;8.164;2022-12-24T01:33:17;0.60;;;0.60;;
76837;SDS011;65797;47.352;8.164;2022-12-24T01:35:43;1.90;;;0.80;;
76837;SDS011;65797;47.352;8.164;2022-12-24T01:38:09;0.60;;;0.60;;
76837;SDS011;65797;47.352;8.164;2022-12-24T01:40:36;0.80;;;0.80;;
76837;SDS011;65797;47.352;8.164;2022-12-24T01:43:25;2.30;;;0.70;;
76837;SDS011;65797;47.352;8.164;2022-12-24T01:53:33;1.00;;;0.70;;
76837;SDS011;65797;47.352;8.164;2022-12-24T01:56:02;0.90;;;0.90;;
76837;SDS011;65797;47.352;8.164;2022-12-24T01:58:28;1.23;;;0.90;;
76837;SDS011;65797;47.352;8.164;2022-12-24T02:00:54;2.33;;;0.90;;
76837;SDS011;65797;47.352;8.164;2022-12-24T02:03:20;1.90;;;1.03;;
76837;SDS011;65797;47.352;8.164;2022-12-24T02:05:46;1.27;;;0.70;;
76837;SDS011;65797;47.352;8.164;2022-12-24T02:08:14;0.70;;;0.70;;
76837;SDS011;65797;47.352;8.164;2022-12-24T02:10:41;2.30;;;0.80;;
76837;SDS011;65797;47.352;8.164;2022-12-24T02:13:07;0.70;;;0.70;;
76837;SDS011;65797;47.352;8.164;2022-12-24T02:15:36;2.93;;;1.10;;
76837;SDS011;65797;47.352;8.164;2022-12-24T02:27:18;0.67;;;0.67;;
76837;SDS011;65797;47.352;8.164;2022-12-24T02:32:25;1.17;;;0.60;;
76837;SDS011;65797;47.352;8.164;2022-12-24T02:35:18;2.93;;;1.10;;
76837;SDS011;65797;47.352;8.164;2022-12-24T02:38:04;2.40;;;0.80;;
76837;SDS011;65797;47.352;8.164;2022-12-24T02:40:37;1.60;;;0.90;;
76837;SDS011;65797;47.352;8.164;2022-12-24T02:43:09;2.53;;;0.97;;
76837;SDS011;65797;47.352;8.164;2022-12-24T02:45:39;2.90;;;0.70;;
76837;SDS011;65797;47.352;8.164;2022-12-24T02:48:07;0.93;;;0.70;;
76837;SDS011;65797;47.352;8.164;2022-12-24T02:50:34;0.60;;;0.60;;
76837;SDS011;65797;47.352;8.164;2022-12-24T02:53:00;0.70;;;0.70;;
76837;SDS011;65797;47.352;8.164;2022-12-24T02:55:47;0.60;;;0.60;;
76837;SDS011;65797;47.352;8.164;2022-12-24T03:09:01;1.87;;;0.70;;
76837;SDS011;65797;47.352;8.164;2022-12-24T03:11:37;4.43;;;0.77;;
76837;SDS011;65797;47.352;8.164;2022-12-24T03:14:09;3.13;;;0.63;;
76837;SDS011;65797;47.352;8.164;2022-12-24T03:16:36;0.70;;;0.70;;
76837;SDS011;65797;47.352;8.164;2022-12-24T03:19:02;1.80;;;1.23;;
76837;SDS011;65797;47.352;8.164;2022-12-24T03:21:32;5.30;;;0.90;;
76837;SDS011;65797;47.352;8.164;2022-12-24T03:24:00;2.27;;;0.70;;
76837;SDS011;65797;47.352;8.164;2022-12-24T03:26:28;0.83;;;0.60;;
76837;SDS011;65797;47.352;8.164;2022-12-24T03:28:56;2.10;;;0.60;;
76837;SDS011;65797;47.352;8.164;2022-12-24T03:31:21;0.60;;;0.60;;
76837;SDS011;65797;47.352;8.164;2022-12-24T03:33:47;0.80;;;0.80;;
76837;SDS011;65797;47.352;8.164;2022-12-24T03:36:13;0.77;;;0.77;;
76837;SDS011;65797;47.352;8.164;2022-12-24T03:38:39;2.20;;;0.77;;
76837;SDS011;65797;47.352;8.164;2022-12-24T03:41:05;2.67;;;0.97;;
76837;SDS011;65797;47.352;8.164;2022-12-24T03:43:31;0.70;;;0.70;;
76837;SDS011;65797;47.352;8.164;2022-12-24T03:45:57;1.03;;;0.77;;
76837;SDS011;65797;47.352;8.164;2022-12-24T03:48:27;1.50;;;1.00;;
76837;SDS011;65797;47.352;8.164;2022-12-24T03:50:52;1.50;;;0.73;;
76837;SDS011;65797;47.352;8.164;2022-12-24T03:53:18;0.80;;;0.70;;
76837;SDS011;65797;47.352;8.164;2022-12-24T03:55:43;1.17;;;1.07;;
76837;SDS011;65797;47.352;8.164;2022-12-24T03:58:10;0.80;;;0.70;;
76837;SDS011;65797;47.352;8.164;2022-12-24T04:00:36;0.77;;;0.77;;
76837;SDS011;65797;47.352;8.164;2022-12-24T04:03:02;1.23;;;0.90;;
76837;SDS011;65797;47.352;8.164;2022-12-24T04:05:27;2.67;;;1.00;;
76837;SDS011;65797;47.352;8.164;2022-12-24T04:07:53;2.87;;;0.80;;
76837;SDS011;65797;47.352;8.164;2022-12-24T04:10:19;1.97;;;0.83;;
76837;SDS011;65797;47.352;8.164;2022-12-24T04:12:44;2.63;;;0.67;;
76837;SDS011;65797;47.352;8.164;2022-12-24T04:15:10;2.20;;;0.90;;
76837;SDS011;65797;47.352;8.164;2022-12-24T04:17:36;1.90;;;0.90;;
76837;SDS011;65797;47.352;8.164;2022-12-24T04:20:02;2.83;;;0.80;;
76837;SDS011;65797;47.352;8.164;2022-12-24T04:22:28;1.17;;;0.90;;
76837;SDS011;65797;47.352;8.164;2022-12-24T04:24:53;6.97;;;1.20;;
76837;SDS011;65797;47.352;8.164;2022-12-24T04:27:19;0.70;;;0.70;;
76837;SDS011;65797;47.352;8.164;2022-12-24T04:29:45;0.90;;;0.90;;
76837;SDS011;65797;47.352;8.164;2022-12-24T04:32:11;2.83;;;1.03;;
76837;SDS011;65797;47.352;8.164;2022-12-24T04:34:36;0.90;;;0.87;;
76837;SDS011;65797;47.352;8.164;2022-12-24T04:37:02;0.70;;;0.60;;
76837;SDS011;65797;47.352;8.164;2022-12-24T04:39:28;1.50;;;0.70;;
76837;SDS011;65797;47.352;8.164;2022-12-24T04:41:54;2.40;;;1.10;;
76837;SDS011;65797;47.352;8.164;2022-12-24T04:44:19;7.37;;;0.87;;
76837;SDS011;65797;47.352;8.164;2022-12-24T04:46:45;1.83;;;1.00;;
76837;SDS011;65797;47.352;8.164;2022-12-24T04:49:11;0.93;;;0.83;;
76837;SDS011;65797;47.352;8.164;2022-12-24T04:51:36;2.27;;;1.00;;
76837;SDS011;65797;47.352;8.164;2022-12-24T04:54:02;3.90;;;1.07;;
76837;SDS011;65797;47.352;8.164;2022-12-24T04:56:29;3.33;;;0.70;;
76837;SDS011;65797;47.352;8.164;2022-12-24T04:58:57;0.70;;;0.70;;
76837;SDS011;65797;47.352;8.164;2022-12-24T05:01:26;1.67;;;1.30;;
76837;SDS011;65797;47.352;8.164;2022-12-24T05:03:53;1.93;;;0.87;;
76837;SDS011;65797;47.352;8.164;2022-12-24T05:06:20;1.20;;;0.70;;
76837;SDS011;65797;47.352;8.164;2022-12-24T05:08:48;6.03;;;1.13;;
76837;SDS011;65797;47.352;8.164;2022-12-24T05:11:14;2.33;;;0.83;;
76837;SDS011;65797;47.352;8.164;2022-12-24T05:13:44;1.33;;;1.10;;
76837;SDS011;65797;47.352;8.164;2022-12-24T05:16:10;2.93;;;1.10;;
76837;SDS011;65797;47.352;8.164;2022-12-24T05:18:37;2.00;;;0.70;;
76837;SDS011;65797;47.352;8.164;2022-12-24T05:21:07;0.60;;;0.60;;
76837;SDS011;65797;47.352;8.164;2022-12-24T05:23:38;2.77;;;0.90;;
76837;SDS011;65797;47.352;8.164;2022-12-24T05:26:27;1.47;;;0.70;;
76837;SDS011;65797;47.352;8.164;2022-12-24T05:28:58;2.93;;;1.10;;
76837;SDS011;65797;47.352;8.164;2022-12-24T05:31:26;0.97;;;0.70;;
76837;SDS011;65797;47.352;8.164;2022-12-24T05:33:52;4.87;;;1.07;;
76837;SDS011;65797;47.352;8.164;2022-12-24T05:36:18;1.00;;;0.90;;
76837;SDS011;65797;47.352;8.164;2022-12-24T05:38:44;2.17;;;0.90;;
76837;SDS011;65797;47.352;8.164;2022-12-24T05:41:10;5.27;;;1.00;;
76837;SDS011;65797;47.352;8.164;2022-12-24T05:43:36;6.33;;;1.33;;
76837;SDS011;65797;47.352;8.164;2022-12-24T05:46:04;1.10;;;0.70;;
76837;SDS011;65797;47.352;8.164;2022-12-24T05:48:31;1.93;;;0.97;;
76837;SDS011;65797;47.352;8.164;2022-12-24T05:50:57;2.53;;;0.70;;
76837;SDS011;65797;47.352;8.164;2022-12-24T05:53:23;2.80;;;1.00;;
76837;SDS011;65797;47.352;8.164;2022-12-24T05:55:48;2.27;;;0.93;;
76837;SDS011;65797;47.352;8.164;2022-12-24T05:58:14;1.80;;;1.13;;
76837;SDS011;65797;47.352;8.164;2022-12-24T06:00:40;1.87;;;0.80;;
76837;SDS011;65797;47.352;8.164;2022-12-24T06:03:06;4.23;;;0.90;;
76837;SDS011;65797;47.352;8.164;2022-12-24T06:05:32;4.67;;;1.00;;
76837;SDS011;65797;47.352;8.164;2022-12-24T06:07:58;3.90;;;1.03;;
76837;SDS011;65797;47.352;8.164;2022-12-24T06:10:24;4.50;;;1.23;;
76837;SDS011;65797;47.352;8.164;2022-12-24T06:12:49;1.30;;;1.10;;
76837;SDS011;65797;47.352;8.164;2022-12-24T06:15:15;1.63;;;1.27;;
76837;SDS011;65797;47.352;8.164;2022-12-24T06:17:41;5.23;;;0.90;;
76837;SDS011;65797;47.352;8.164;2022-12-24T06:20:07;3.30;;;1.53;;
76837;SDS011;65797;47.352;8.164;2022-12-24T06:22:33;0.90;;;0.70;;
76837;SDS011;65797;47.352;8.164;2022-12-24T06:24:58;1.87;;;1.03;;
76837;SDS011;65797;47.352;8.164;2022-12-24T06:27:24;2.00;;;0.80;;
76837;SDS011;65797;47.352;8.164;2022-12-24T06:29:50;2.40;;;1.30;;
76837;SDS011;65797;47.352;8.164;2022-12-24T06:32:15;2.60;;;0.90;;
76837;SDS011;65797;47.352;8.164;2022-12-24T06:34:41;2.20;;;1.10;;
76837;SDS011;65797;47.352;8.164;2022-12-24T06:37:07;8.67;;;1.70;;
76837;SDS011;65797;47.352;8.164;2022-12-24T06:39:32;4.77;;;1.10;;
76837;SDS011;65797;47.352;8.164;2022-12-24T06:41:58;1.97;;;1.70;;
76837;SDS011;65797;47.352;8.164;2022-12-24T06:44:24;2.77;;;1.50;;
76837;SDS011;65797;47.352;8.164;2022-12-24T06:46:50;14.03;;;9.30;;
76837;SDS011;65797;47.352;8.164;2022-12-24T06:49:16;5.07;;;3.17;;
76837;SDS011;65797;47.352;8.164;2022-12-24T06:51:41;6.57;;;1.63;;
76837;SDS011;65797;47.352;8.164;2022-12-24T06:54:07;3.00;;;1.47;;
76837;SDS011;65797;47.352;8.164;2022-12-24T06:56:33;2.27;;;1.43;;
76837;SDS011;65797;47.352;8.164;2022-12-24T06:58:59;1.10;;;0.70;;
76837;SDS011;65797;47.352;8.164;2022-12-24T07:01:24;4.87;;;1.10;;
76837;SDS011;65797;47.352;8.164;2022-12-24T07:03:50;1.47;;;1.20;;
76837;SDS011;65797;47.352;8.164;2022-12-24T07:06:17;4.63;;;1.70;;
76837;SDS011;65797;47.352;8.164;2022-12-24T07:08:51;3.17;;;1.70;;
76837;SDS011;65797;47.352;8.164;2022-12-24T07:11:17;1.50;;;1.00;;
76837;SDS011;65797;47.352;8.164;2022-12-24T07:13:43;5.77;;;1.40;;
76837;SDS011;65797;47.352;8.164;2022-12-24T07:16:10;1.97;;;0.93;;
76837;SDS011;65797;47.352;8.164;2022-12-24T07:18:35;2.73;;;1.03;;
76837;SDS011;65797;47.352;8.164;2022-12-24T07:21:02;5.83;;;1.47;;
76837;SDS011;65797;47.352;8.164;2022-12-24T07:23:29;4.20;;;1.30;;
76837;SDS011;65797;47.352;8.164;2022-12-24T07:26:00;3.40;;;1.77;;
76837;SDS011;65797;47.352;8.164;2022-12-24T07:28:26;2.53;;;1.20;;
76837;SDS011;65797;47.352;8.164;2022-12-24T07:30:52;7.97;;;1.40;;
76837;SDS011;65797;47.352;8.164;2022-12-24T07:33:18;3.73;;;0.90;;
76837;SDS011;65797;47.352;8.164;2022-12-24T07:56:27;2.73;;;1.10;;
76837;SDS011;65797;47.352;8.164;2022-12-24T07:58:53;1.50;;;0.70;;
76837;SDS011;65797;47.352;8.164;2022-12-24T08:01:18;2.20;;;1.20;;
76837;SDS011;65797;47.352;8.164;2022-12-24T08:03:44;6.07;;;1.03;;
76837;SDS011;65797;47.352;8.164;2022-12-24T08:06:10;4.27;;;0.90;;
76837;SDS011;65797;47.352;8.164;2022-12-24T08:08:36;2.87;;;0.97;;
76837;SDS011;65797;47.352;8.164;2022-12-24T08:11:03;0.93;;;0.80;;
76837;SDS011;65797;47.352;8.164;2022-12-24T08:13:30;1.20;;;0.80;;
76837;SDS011;65797;47.352;8.164;2022-12-24T08:15:56;2.50;;;1.03;;
76837;SDS011;65797;47.352;8.164;2022-12-24T08:18:22;1.40;;;1.00;;
76837;SDS011;65797;47.352;8.164;2022-12-24T08:20:48;1.70;;;0.97;;
76837;SDS011;65797;47.352;8.164;2022-12-24T08:23:14;2.27;;;1.30;;
76837;SDS011;65797;47.352;8.164;2022-12-24T08:25:44;1.90;;;1.00;;
76837;SDS011;65797;47.352;8.164;2022-12-24T08:28:11;2.37;;;1.00;;
76837;SDS011;65797;47.352;8.164;2022-12-24T08:30:38;1.73;;;0.70;;
76837;SDS011;65797;47.352;8.164;2022-12-24T08:33:04;1.90;;;0.90;;
76837;SDS011;65797;47.352;8.164;2022-12-24T08:35:30;1.53;;;1.00;;
76837;SDS011;65797;47.352;8.164;2022-12-24T08:37:56;5.60;;;0.90;;
76837;SDS011;65797;47.352;8.164;2022-12-24T08:40:21;2.27;;;1.07;;
76837;SDS011;65797;47.352;8.164;2022-12-24T08:42:47;1.40;;;0.87;;
76837;SDS011;65797;47.352;8.164;2022-12-24T08:45:13;3.07;;;1.00;;
76837;SDS011;65797;47.352;8.164;2022-12-24T08:47:39;3.13;;;0.80;;
76837;SDS011;65797;47.352;8.164;2022-12-24T08:50:05;7.60;;;1.20;;
76837;SDS011;65797;47.352;8.164;2022-12-24T08:52:31;1.93;;;1.00;;
76837;SDS011;65797;47.352;8.164;2022-12-24T08:54:57;1.60;;;1.00;;
76837;SDS011;65797;47.352;8.164;2022-12-24T08:57:23;2.60;;;1.10;;
76837;SDS011;65797;47.352;8.164;2022-12-24T08:59:48;4.40;;;1.10;;
76837;SDS011;65797;47.352;8.164;2022-12-24T09:02:14;1.27;;;0.90;;
76837;SDS011;65797;47.352;8.164;2022-12-24T09:04:40;2.63;;;1.00;;
76837;SDS011;65797;47.352;8.164;2022-12-24T09:07:06;2.30;;;1.23;;
76837;SDS011;65797;47.352;8.164;2022-12-24T09:09:32;2.80;;;1.20;;
76837;SDS011;65797;47.352;8.164;2022-12-24T09:11:59;4.57;;;1.17;;
76837;SDS011;65797;47.352;8.164;2022-12-24T09:14:24;2.90;;;1.10;;
76837;SDS011;65797;47.352;8.164;2022-12-24T09:16:50;1.53;;;1.43;;
76837;SDS011;65797;47.352;8.164;2022-12-24T09:19:16;2.90;;;1.10;;
76837;SDS011;65797;47.352;8.164;2022-12-24T09:21:41;1.60;;;1.00;;
76837;SDS011;65797;47.352;8.164;2022-12-24T09:24:07;0.80;;;0.80;;
76837;SDS011;65797;47.352;8.164;2022-12-24T09:26:33;0.80;;;0.80;;
76837;SDS011;65797;47.352;8.164;2022-12-24T09:29:00;2.87;;;1.10;;
76837;SDS011;65797;47.352;8.164;2022-12-24T09:31:27;1.00;;;1.00;;
76837;SDS011;65797;47.352;8.164;2022-12-24T09:33:53;1.70;;;1.00;;
76837;SDS011;65797;47.352;8.164;2022-12-24T09:36:19;1.70;;;1.10;;
76837;SDS011;65797;47.352;8.164;2022-12-24T09:38:46;2.63;;;0.90;;
76837;SDS011;65797;47.352;8.164;2022-12-24T09:41:39;0.97;;;0.87;;
76837;SDS011;65797;47.352;8.164;2022-12-24T09:46:51;1.13;;;0.93;;
76837;SDS011;65797;47.352;8.164;2022-12-24T09:49:23;1.23;;;1.10;;
76837;SDS011;65797;47.352;8.164;2022-12-24T09:51:55;2.07;;;0.93;;
76837;SDS011;65797;47.352;8.164;2022-12-24T09:54:30;1.10;;;1.00;;
76837;SDS011;65797;47.352;8.164;2022-12-24T09:57:00;1.50;;;0.90;;
76837;SDS011;65797;47.352;8.164;2022-12-24T09:59:41;1.20;;;1.10;;
76837;SDS011;65797;47.352;8.164;2022-12-24T10:02:13;1.00;;;0.90;;
76837;SDS011;65797;47.352;8.164;2022-12-24T10:04:42;0.90;;;0.90;;
76837;SDS011;65797;47.352;8.164;2022-12-24T10:10:52;3.10;;;1.03;;
76837;SDS011;65797;47.352;8.164;2022-12-24T10:15:59;1.97;;;1.00;;
76837;SDS011;65797;47.352;8.164;2022-12-24T10:21:14;1.23;;;1.10;;
76837;SDS011;65797;47.352;8.164;2022-12-24T10:23:53;0.77;;;0.77;;
76837;SDS011;65797;47.352;8.164;2022-12-24T10:26:47;1.00;;;0.90;;
76837;SDS011;65797;47.352;8.164;2022-12-24T10:29:21;0.80;;;0.80;;
76837;SDS011;65797;47.352;8.164;2022-12-24T10:32:00;0.80;;;0.70;;
76837;SDS011;65797;47.352;8.164;2022-12-24T10:34:30;0.73;;;0.73;;
76837;SDS011;65797;47.352;8.164;2022-12-24T10:37:02;2.13;;;1.10;;
76837;SDS011;65797;47.352;8.164;2022-12-24T10:39:28;1.20;;;1.00;;
76837;SDS011;65797;47.352;8.164;2022-12-24T10:41:54;2.30;;;0.90;;
76837;SDS011;65797;47.352;8.164;2022-12-24T10:44:23;0.70;;;0.70;;
76837;SDS011;65797;47.352;8.164;2022-12-24T10:46:52;0.77;;;0.77;;
76837;SDS011;65797;47.352;8.164;2022-12-24T10:49:19;1.07;;;1.03;;
76837;SDS011;65797;47.352;8.164;2022-12-24T10:51:56;0.80;;;0.80;;
76837;SDS011;65797;47.352;8.164;2022-12-24T10:54:29;1.00;;;1.00;;
76837;SDS011;65797;47.352;8.164;2022-12-24T10:57:03;1.90;;;0.80;;
76837;SDS011;65797;47.352;8.164;2022-12-24T10:59:33;2.20;;;0.83;;
76837;SDS011;65797;47.352;8.164;2022-12-24T11:02:26;0.70;;;0.70;;
76837;SDS011;65797;47.352;8.164;2022-12-24T11:05:02;0.70;;;0.70;;
76837;SDS011;65797;47.352;8.164;2022-12-24T11:15:42;1.33;;;0.70;;
76837;SDS011;65797;47.352;8.164;2022-12-24T11:18:12;1.37;;;1.00;;
76837;SDS011;65797;47.352;8.164;2022-12-24T11:20:39;1.10;;;0.90;;
76837;SDS011;65797;47.352;8.164;2022-12-24T11:23:05;1.00;;;0.90;;
76837;SDS011;65797;47.352;8.164;2022-12-24T11:25:38;0.70;;;0.70;;
76837;SDS011;65797;47.352;8.164;2022-12-24T11:28:11;2.00;;;0.93;;
76837;SDS011;65797;47.352;8.164;2022-12-24T11:33:56;1.00;;;0.90;;
76837;SDS011;65797;47.352;8.164;2022-12-24T11:36:23;1.33;;;1.10;;
76837;SDS011;65797;47.352;8.164;2022-12-24T11:39:00;1.73;;;1.00;;
76837;SDS011;65797;47.352;8.164;2022-12-24T11:41:27;1.33;;;1.23;;
76837;SDS011;65797;47.352;8.164;2022-12-24T11:44:01;1.57;;;0.80;;
76837;SDS011;65797;47.352;8.164;2022-12-24T11:46:39;0.83;;;0.70;;
76837;SDS011;65797;47.352;8.164;2022-12-24T11:51:36;1.13;;;1.10;;
76837;SDS011;65797;47.352;8.164;2022-12-24T11:56:40;1.00;;;1.00;;
76837;SDS011;65797;47.352;8.164;2022-12-24T12:01:37;2.30;;;0.93;;
76837;SDS011;65797;47.352;8.164;2022-12-24T12:06:51;1.10;;;1.00;;
76837;SDS011;65797;47.352;8.164;2022-12-24T12:12:28;0.80;;;0.80;;
76837;SDS011;65797;47.352;8.164;2022-12-24T12:15:04;0.97;;;0.73;;
76837;SDS011;65797;47.352;8.164;2022-12-24T12:17:42;0.70;;;0.70;;
76837;SDS011;65797;47.352;8.164;2022-12-24T12:20:18;0.93;;;0.80;;
76837;SDS011;65797;47.352;8.164;2022-12-24T12:25:24;1.53;;;0.60;;
76837;SDS011;65797;47.352;8.164;2022-12-24T12:28:17;2.37;;;0.60;;
76837;SDS011;65797;47.352;8.164;2022-12-24T12:30:54;0.70;;;0.70;;
76837;SDS011;65797;47.352;8.164;2022-12-24T12:33:34;0.60;;;0.60;;
76837;SDS011;65797;47.352;8.164;2022-12-24T12:36:52;0.60;;;0.60;;
76837;SDS011;65797;47.352;8.164;2022-12-24T12:39:26;0.60;;;0.60;;
76837;SDS011;65797;47.352;8.164;2022-12-24T12:47:14;1.37;;;0.63;;
76837;SDS011;65797;47.352;8.164;2022-12-24T12:49:57;0.70;;;0.70;;
76837;SDS011;65797;47.352;8.164;2022-12-24T12:58:02;0.70;;;0.70;;
76837;SDS011;65797;47.352;8.164;2022-12-24T13:03:14;0.67;;;0.67;;
76837;SDS011;65797;47.352;8.164;2022-12-24T13:21:43;0.70;;;0.70;;
76837;SDS011;65797;47.352;8.164;2022-12-24T13:24:17;0.80;;;0.80;;
76837;SDS011;65797;47.352;8.164;2022-12-24T13:27:05;0.93;;;0.70;;
76837;SDS011;65797;47.352;8.164;2022-12-24T13:29:42;0.60;;;0.60;;
76837;SDS011;65797;47.352;8.164;2022-12-24T13:50:35;0.70;;;0.70;;
76837;SDS011;65797;47.352;8.164;2022-12-24T13:58:32;0.60;;;0.60;;
76837;SDS011;65797;47.352;8.164;2022-12-24T14:01:03;0.60;;;0.60;;
76837;SDS011;65797;47.352;8.164;2022-12-24T14:03:34;0.67;;;0.67;;
76837;SDS011;65797;47.352;8.164;2022-12-24T14:06:19;0.60;;;0.60;;
76837;SDS011;65797;47.352;8.164;2022-12-24T14:08:55;2.97;;;0.70;;
76837;SDS011;65797;47.352;8.164;2022-12-24T14:17:00;0.63;;;0.63;;
76837;SDS011;65797;47.352;8.164;2022-12-24T14:25:18;0.57;;;0.57;;
76837;SDS011;65797;47.352;8.164;2022-12-24T14:27:51;0.70;;;0.70;;
76837;SDS011;65797;47.352;8.164;2022-12-24T14:30:19;0.80;;;0.80;;
76837;SDS011;65797;47.352;8.164;2022-12-24T14:32:45;0.60;;;0.60;;
76837;SDS011;65797;47.352;8.164;2022-12-24T14:37:38;0.60;;;0.60;;
76837;SDS011;65797;47.352;8.164;2022-12-24T14:40:17;0.60;;;0.60;;
76837;SDS011;65797;47.352;8.164;2022-12-24T14:45:28;2.00;;;0.50;;
76837;SDS011;65797;47.352;8.164;2022-12-24T14:55:45;0.70;;;0.60;;
76837;SDS011;65797;47.352;8.164;2022-12-24T15:01:17;0.50;;;0.50;;
76837;SDS011;65797;47.352;8.164;2022-12-24T15:03:58;0.60;;;0.60;;
76837;SDS011;65797;47.352;8.164;2022-12-24T15:06:24;0.60;;;0.60;;
76837;SDS011;65797;47.352;8.164;2022-12-24T15:08:51;0.80;;;0.80;;
76837;SDS011;65797;47.352;8.164;2022-12-24T15:11:18;0.60;;;0.60;;
76837;SDS011;65797;47.352;8.164;2022-12-24T15:13:46;0.70;;;0.70;;
76837;SDS011;65797;47.352;8.164;2022-12-24T15:16:27;0.70;;;0.70;;
76837;SDS011;65797;47.352;8.164;2022-12-24T15:19:04;0.93;;;0.90;;
76837;SDS011;65797;47.352;8.164;2022-12-24T15:21:37;0.80;;;0.80;;
76837;SDS011;65797;47.352;8.164;2022-12-24T15:26:43;0.80;;;0.80;;
76837;SDS011;65797;47.352;8.164;2022-12-24T15:29:13;1.47;;;0.73;;
76837;SDS011;65797;47.352;8.164;2022-12-24T15:31:45;0.70;;;0.70;;
76837;SDS011;65797;47.352;8.164;2022-12-24T15:34:36;0.80;;;0.80;;
76837;SDS011;65797;47.352;8.164;2022-12-24T15:39:30;1.57;;;0.73;;
76837;SDS011;65797;47.352;8.164;2022-12-24T15:41:56;1.60;;;1.10;;
76837;SDS011;65797;47.352;8.164;2022-12-24T15:44:38;1.43;;;0.90;;
76837;SDS011;65797;47.352;8.164;2022-12-24T15:47:07;5.20;;;1.10;;
76837;SDS011;65797;47.352;8.164;2022-12-24T15:49:42;1.10;;;1.10;;
76837;SDS011;65797;47.352;8.164;2022-12-24T15:52:11;1.20;;;1.10;;
76837;SDS011;65797;47.352;8.164;2022-12-24T15:54:45;1.30;;;1.20;;
76837;SDS011;65797;47.352;8.164;2022-12-24T15:59:52;2.67;;;2.00;;
76837;SDS011;65797;47.352;8.164;2022-12-24T16:02:33;2.20;;;1.80;;
76837;SDS011;65797;47.352;8.164;2022-12-24T16:05:17;2.33;;;1.70;;
76837;SDS011;65797;47.352;8.164;2022-12-24T16:10:48;1.87;;;1.73;;
76837;SDS011;65797;47.352;8.164;2022-12-24T16:13:18;1.70;;;1.60;;
76837;SDS011;65797;47.352;8.164;2022-12-24T16:18:30;2.00;;;1.90;;
76837;SDS011;65797;47.352;8.164;2022-12-24T16:20:57;2.63;;;2.43;;
76837;SDS011;65797;47.352;8.164;2022-12-24T16:26:04;3.90;;;2.90;;
76837;SDS011;65797;47.352;8.164;2022-12-24T16:28:30;2.63;;;2.43;;
76837;SDS011;65797;47.352;8.164;2022-12-24T16:30:56;2.30;;;2.10;;
76837;SDS011;65797;47.352;8.164;2022-12-24T16:33:22;2.57;;;2.37;;
76837;SDS011;65797;47.352;8.164;2022-12-24T16:35:48;1.83;;;1.73;;
76837;SDS011;65797;47.352;8.164;2022-12-24T16:38:14;6.47;;;3.07;;
76837;SDS011;65797;47.352;8.164;2022-12-24T16:40:40;1.83;;;1.73;;
76837;SDS011;65797;47.352;8.164;2022-12-24T16:43:07;2.07;;;1.90;;
76837;SDS011;65797;47.352;8.164;2022-12-24T16:45:52;1.63;;;1.53;;
76837;SDS011;65797;47.352;8.164;2022-12-24T16:48:22;2.30;;;2.10;;
76837;SDS011;65797;47.352;8.164;2022-12-24T16:50:48;5.30;;;2.77;;
76837;SDS011;65797;47.352;8.164;2022-12-24T16:53:16;2.50;;;2.40;;
76837;SDS011;65797;47.352;8.164;2022-12-24T16:55:43;3.57;;;2.43;;
76837;SDS011;65797;47.352;8.164;2022-12-24T16:58:13;5.30;;;2.93;;
76837;SDS011;65797;47.352;8.164;2022-12-24T17:00:40;6.73;;;4.50;;
76837;SDS011;65797;47.352;8.164;2022-12-24T17:03:07;4.63;;;3.00;;
76837;SDS011;65797;47.352;8.164;2022-12-24T17:05:36;3.97;;;3.20;;
76837;SDS011;65797;47.352;8.164;2022-12-24T17:08:02;4.53;;;3.07;;
76837;SDS011;65797;47.352;8.164;2022-12-24T17:10:28;2.60;;;2.40;;
76837;SDS011;65797;47.352;8.164;2022-12-24T17:12:54;3.27;;;2.53;;
76837;SDS011;65797;47.352;8.164;2022-12-24T17:15:20;3.63;;;2.47;;
76837;SDS011;65797;47.352;8.164;2022-12-24T17:17:45;2.30;;;2.10;;
76837;SDS011;65797;47.352;8.164;2022-12-24T17:20:11;3.13;;;2.53;;
76837;SDS011;65797;47.352;8.164;2022-12-24T17:22:37;1.90;;;1.80;;
76837;SDS011;65797;47.352;8.164;2022-12-24T17:25:03;1.90;;;1.70;;
76837;SDS011;65797;47.352;8.164;2022-12-24T17:27:30;2.57;;;2.10;;
76837;SDS011;65797;47.352;8.164;2022-12-24T17:29:55;2.63;;;2.43;;
76837;SDS011;65797;47.352;8.164;2022-12-24T17:32:21;2.37;;;2.17;;
76837;SDS011;65797;47.352;8.164;2022-12-24T17:34:47;2.30;;;2.20;;
76837;SDS011;65797;47.352;8.164;2022-12-24T17:37:13;2.47;;;2.27;;
76837;SDS011;65797;47.352;8.164;2022-12-24T17:39:38;2.10;;;2.00;;
76837;SDS011;65797;47.352;8.164;2022-12-24T17:42:04;1.83;;;1.73;;
76837;SDS011;65797;47.352;8.164;2022-12-24T17:44:30;2.23;;;2.03;;
76837;SDS011;65797;47.352;8.164;2022-12-24T17:46:55;2.50;;;2.30;;
76837;SDS011;65797;47.352;8.164;2022-12-24T17:49:21;2.90;;;1.90;;
76837;SDS011;65797;47.352;8.164;2022-12-24T17:51:47;2.70;;;2.50;;
76837;SDS011;65797;47.352;8.164;2022-12-24T17:54:12;2.17;;;2.00;;
76837;SDS011;65797;47.352;8.164;2022-12-24T17:56:38;3.57;;;2.97;;
76837;SDS011;65797;47.352;8.164;2022-12-24T17:59:04;2.97;;;2.70;;
76837;SDS011;65797;47.352;8.164;2022-12-24T18:01:29;2.60;;;2.40;;
76837;SDS011;65797;47.352;8.164;2022-12-24T18:03:59;2.10;;;2.00;;